Lamar, South Carolina
Current Conditions -  °F | °C
As of 2:53 AM on Saturday 25 Oct 2014 (Local Time) from KFLO Reporting Station
Clear Clear  
Wind Chill: 49°   Ceiling: Unl
Heat Index: 49°   Visibility: 10mi
Dew Point: 46°   Wind: 3mph
Humidity: 90%   Direction: 350°N
Pressure: 29.99"   Gusts: NA
Location:  34.17°N, 80.06°W
Report Text: KFLO 250653Z AUTO 35003KT 10SM CLR 09/08 A2999 RMK AO2 SLP152 T00940078
Loading
Personal Weather Stations






























Interactive Weather Map
Tropical Storm Tracking
New forecast layout! Learn more

10-Day Weather Forecast

Advertisements
Track Severe Weather on mobile